METAR AND TAF INFORMATION
METAR FOR ZGKL
ZGKL 230500Z 04002MPS 330V090 9999 FEW030 33/25 Q1002 NOSIG
ZGKL 230400Z 12003MPS 9999 FEW026 SCT043 31/25 Q1003 NOSIG
ZGKL 230300Z 16002MPS 100V210 9999 FEW026 SCT043 31/24 Q1004 NOSIG

TAF ZGKL 230311Z 2306/2406 18003MPS 6000 SCT050 TX38/2307Z TN26/2322Z

 AIRPORT MAP

 RUNWAY INFORMATION
Runway 01 Runway length 9186 ft Runway width 147 ft
Runway elevation 571 ft Runway displaced threshold 0 ft Runway heading 5
Runway 19 Runway length 9186 ft Runway width 147 ft
Runway elevation 564 ft Runway displaced threshold 0 ft Runway heading 185

 AIRPORT FREQUENCIES
Type ATIS Name ATIS Frequency 126.45 MHZ
Type GND Name GND Frequency 121.65 MHZ
Type TWR Name TWR Frequency 118 MHZ

 AIRPORT NEAR NAVIGATION AIDS
Type VOR-DME Name Guilin Frequency 114900 KHZ

-